createdAt,value
2018-05-27T04:02:41.617Z,7.27
2018-05-27T04:05:21.170Z,7.57
2018-05-27T04:08:00.559Z,7.10
2018-05-27T04:10:28.130Z,6.90
2018-05-27T04:12:56.433Z,8.23
2018-05-27T04:15:24.001Z,7.50
2018-05-27T04:17:51.538Z,7.87
2018-05-27T04:20:19.875Z,7.40
2018-05-27T04:22:47.407Z,7.17
2018-05-27T04:25:14.981Z,7.27
2018-05-27T04:27:42.529Z,7.80
2018-05-27T04:30:10.106Z,8.30
2018-05-27T04:32:37.650Z,6.70
2018-05-27T04:35:05.222Z,7.90
2018-05-27T04:37:32.761Z,8.53
2018-05-27T04:40:00.326Z,7.80
2018-05-27T04:42:27.861Z,8.40
2018-05-27T04:44:55.426Z,7.70
2018-05-27T04:47:22.970Z,7.77
2018-05-27T04:49:51.294Z,8.27
2018-05-27T04:52:18.838Z,7.87
2018-05-27T04:54:46.401Z,7.13
2018-05-27T04:57:13.954Z,8.87
2018-05-27T04:59:41.514Z,8.90
2018-05-27T05:02:09.047Z,8.20
2018-05-27T05:04:37.354Z,7.60
2018-05-27T05:07:04.928Z,8.00
2018-05-27T05:09:32.514Z,8.67
2018-05-27T05:12:00.061Z,8.40
2018-05-27T05:14:27.606Z,8.37
2018-05-27T05:16:55.185Z,8.73
2018-05-27T05:19:22.729Z,8.50
2018-05-27T05:21:50.286Z,5.80
2018-05-27T05:24:17.847Z,5.93
2018-05-27T05:26:45.404Z,6.87
2018-05-27T05:29:12.967Z,7.23
2018-05-27T05:31:40.526Z,6.83
2018-05-27T05:34:08.072Z,6.63
2018-05-27T05:36:35.642Z,5.97
2018-05-27T05:39:03.190Z,6.47
2018-05-27T05:41:30.749Z,5.70
2018-05-27T05:43:58.309Z,6.17
2018-05-27T05:46:25.880Z,6.30
2018-05-27T05:48:53.427Z,6.80
2018-05-27T05:51:20.993Z,5.90
2018-05-27T05:53:48.546Z,6.53
2018-05-27T05:56:16.126Z,6.57
2018-05-27T05:58:43.670Z,8.10
2018-05-27T06:01:11.243Z,6.30
2018-05-27T06:03:38.799Z,7.20
2018-05-27T06:06:06.359Z,6.27
2018-05-27T06:08:33.904Z,6.30
2018-05-27T06:11:02.242Z,6.13
2018-05-27T06:13:29.838Z,5.70
2018-05-27T06:15:57.415Z,5.50
2018-05-27T06:18:25.706Z,5.73
2018-05-27T06:20:53.273Z,5.50
2018-05-27T06:23:20.809Z,5.90
2018-05-27T06:25:48.414Z,6.13
2018-05-27T06:28:15.947Z,5.40
2018-05-27T06:30:43.491Z,5.80
2018-05-27T06:33:11.061Z,5.20
2018-05-27T06:35:38.606Z,5.80
2018-05-27T06:38:06.943Z,5.10
2018-05-27T06:40:34.481Z,5.30
2018-05-27T06:43:02.060Z,5.07
2018-05-27T06:45:29.608Z,4.80
2018-05-27T06:47:57.177Z,5.00
2018-05-27T06:50:24.730Z,4.47
2018-05-27T06:52:52.305Z,4.60
2018-05-27T06:55:19.852Z,4.83
2018-05-27T06:57:47.426Z,5.30
2018-05-27T07:00:14.972Z,4.53
2018-05-27T07:02:42.525Z,4.80
2018-05-27T07:05:10.182Z,4.70
2018-05-27T07:07:37.749Z,5.10
2018-05-27T07:10:05.291Z,4.60
2018-05-27T07:12:32.867Z,4.57
2018-05-27T07:15:00.406Z,5.13
2018-05-27T07:17:27.966Z,5.00
2018-05-27T07:19:55.509Z,5.20
2018-05-27T07:22:23.835Z,5.20
2018-05-27T07:24:51.376Z,5.20
2018-05-27T07:27:18.938Z,5.10
2018-05-27T07:29:46.477Z,5.10
2018-05-27T07:32:14.098Z,5.17
2018-05-27T07:34:41.615Z,4.57
2018-05-27T07:37:09.190Z,4.70
2018-05-27T07:39:36.728Z,5.27
2018-05-27T07:42:04.291Z,4.87
2018-05-27T07:44:31.829Z,4.70
2018-05-27T07:47:00.161Z,4.90
2018-05-27T07:49:27.707Z,5.20
2018-05-27T07:51:55.275Z,5.10
2018-05-27T07:54:22.830Z,5.50
2018-05-27T07:56:50.364Z,5.50
2018-05-27T07:59:17.943Z,4.67
2018-05-27T08:01:45.487Z,5.10
2018-05-27T08:04:13.052Z,5.20
2018-05-27T08:06:40.591Z,4.33
2018-05-27T08:09:08.943Z,4.80
2018-05-27T08:11:36.488Z,5.47
2018-05-27T08:14:04.050Z,5.87
2018-05-27T08:16:31.598Z,5.20
2018-05-27T08:18:59.174Z,4.90
2018-05-27T08:21:26.712Z,5.07
2018-05-27T08:23:54.286Z,5.47
2018-05-27T08:26:21.818Z,5.33
2018-05-27T08:28:50.407Z,5.17
2018-05-27T08:31:17.943Z,5.00
2018-05-27T08:33:46.273Z,4.67
2018-05-27T08:36:13.822Z,5.00
2018-05-27T08:38:41.393Z,5.10
2018-05-27T08:41:08.922Z,4.67
2018-05-27T08:43:36.492Z,5.57
2018-05-27T08:46:04.038Z,5.13
2018-05-27T08:48:31.609Z,5.73
2018-05-27T08:50:59.167Z,5.37
2018-05-27T08:53:26.770Z,6.10
2018-05-27T08:55:54.302Z,5.80
2018-05-27T08:58:21.870Z,5.70
2018-05-27T09:00:49.528Z,5.57
2018-05-27T09:03:17.099Z,5.00
2018-05-27T09:05:44.644Z,5.53
2018-05-27T09:08:12.222Z,5.43
2018-05-27T09:10:39.775Z,5.33
2018-05-27T09:13:07.342Z,5.80
2018-05-27T09:15:34.885Z,6.00
2018-05-27T09:18:02.427Z,6.10
2018-05-27T09:20:30.006Z,6.13
2018-05-27T09:22:57.570Z,6.33
2018-05-27T09:25:25.134Z,5.77
2018-05-27T09:27:52.686Z,5.70
2018-05-27T09:30:20.258Z,6.03
2018-05-27T09:32:47.803Z,6.10
2018-05-27T09:35:15.374Z,5.33
2018-05-27T09:37:42.915Z,5.40
2018-05-27T09:40:10.482Z,5.70
2018-05-27T09:42:38.023Z,5.43
2018-05-27T09:45:05.673Z,5.43
2018-05-27T09:47:33.182Z,5.60
2018-05-27T09:50:00.741Z,5.53
2018-05-27T09:52:28.285Z,5.27
2018-05-27T09:54:55.846Z,4.70
2018-05-27T09:57:23.379Z,4.97
2018-05-27T09:59:50.963Z,4.80
2018-05-27T10:02:18.518Z,4.47
2018-05-27T10:04:46.081Z,4.87
2018-05-27T10:07:13.618Z,4.50
2018-05-27T10:09:41.178Z,5.07
2018-05-27T10:12:09.490Z,5.47
2018-05-27T10:14:37.860Z,5.17
2018-05-27T10:17:05.409Z,5.27
2018-05-27T10:19:32.983Z,5.17
2018-05-27T10:22:00.539Z,5.00
2018-05-27T10:24:28.111Z,5.20
2018-05-27T10:26:55.683Z,5.07
2018-05-27T10:29:23.227Z,5.23
2018-05-27T10:31:50.790Z,5.37
2018-05-27T10:34:18.335Z,4.63
2018-05-27T10:36:45.924Z,4.77
2018-05-27T10:39:13.482Z,4.90
2018-05-27T10:41:41.045Z,4.97
2018-05-27T10:44:08.586Z,5.40
2018-05-27T10:46:36.163Z,5.17
2018-05-27T10:49:03.706Z,5.30
2018-05-27T10:51:31.298Z,5.03
2018-05-27T10:53:58.833Z,5.00
2018-05-27T10:56:26.416Z,4.63
2018-05-27T10:58:53.959Z,4.67
2018-05-27T11:01:21.540Z,5.03
2018-05-27T11:03:49.070Z,4.80
2018-05-27T11:06:16.642Z,5.23
2018-05-27T11:08:44.181Z,5.50
2018-05-27T11:11:11.744Z,5.60
2018-05-27T11:13:39.291Z,5.03
2018-05-27T11:16:06.862Z,5.80
2018-05-27T11:18:34.407Z,4.73
2018-05-27T11:21:01.984Z,5.50
2018-05-27T11:23:29.525Z,4.80
2018-05-27T11:25:57.098Z,5.23
2018-05-27T11:28:24.639Z,4.90
2018-05-27T11:30:52.983Z,4.67
2018-05-27T11:33:20.531Z,4.83
2018-05-27T11:35:48.094Z,4.97
2018-05-27T11:38:15.651Z,5.23
2018-05-27T11:40:43.214Z,5.33
2018-05-27T11:43:10.767Z,5.37
2018-05-27T11:45:38.331Z,5.10
2018-05-27T11:48:05.874Z,5.23
2018-05-27T11:50:33.454Z,4.73
2018-05-27T11:53:01.005Z,4.57
2018-05-27T11:55:28.578Z,4.70
2018-05-27T11:57:56.131Z,4.90
2018-05-27T12:00:23.687Z,5.23
2018-05-27T12:02:51.254Z,4.90
2018-05-27T12:05:18.808Z,4.57
2018-05-27T12:07:46.383Z,4.33
2018-05-27T12:10:13.927Z,4.60
2018-05-27T12:12:41.487Z,4.23
2018-05-27T12:15:09.026Z,4.10
2018-05-27T12:17:36.602Z,4.40
2018-05-27T12:20:04.134Z,5.10
2018-05-27T12:22:32.462Z,5.07
2018-05-27T12:24:59.995Z,5.10
2018-05-27T12:27:27.554Z,4.67
2018-05-27T12:29:55.191Z,4.60
2018-05-27T12:32:22.693Z,4.73
2018-05-27T12:34:50.235Z,4.67
2018-05-27T12:37:17.811Z,4.30
2018-05-27T12:39:45.349Z,4.27
2018-05-27T12:42:12.937Z,4.47
2018-05-27T12:44:40.484Z,4.07
2018-05-27T12:47:08.055Z,4.80
2018-05-27T12:49:35.590Z,4.20
2018-05-27T12:52:03.152Z,4.50
2018-05-27T12:54:30.694Z,4.20
2018-05-27T12:56:59.047Z,4.10
2018-05-27T12:59:28.111Z,3.70
2018-05-27T13:01:55.684Z,3.90
2018-05-27T13:04:23.226Z,3.70
2018-05-27T13:06:50.808Z,3.77
2018-05-27T13:09:18.349Z,4.13
2018-05-27T13:11:46.254Z,3.73
2018-05-27T13:14:14.377Z,4.00
2018-05-27T13:16:42.074Z,4.13
2018-05-27T13:19:09.522Z,4.17
2018-05-27T13:21:37.106Z,4.63
2018-05-27T13:24:05.425Z,4.07
2018-05-27T13:26:33.003Z,5.00
2018-05-27T13:29:01.085Z,6.27
2018-05-27T13:31:28.666Z,4.97
2018-05-27T13:33:56.237Z,4.87
2018-05-27T13:36:24.371Z,5.13
2018-05-27T13:38:52.897Z,5.30
2018-05-27T13:41:20.446Z,7.07
2018-05-27T13:43:48.818Z,7.57
2018-05-27T13:46:16.354Z,9.80
2018-05-27T13:48:44.402Z,10.53
2018-05-27T13:51:12.701Z,9.07
2018-05-27T13:53:40.273Z,8.50
2018-05-27T13:56:07.821Z,6.70
2018-05-27T13:58:37.155Z,6.53
2018-05-27T14:01:04.702Z,6.30
2018-05-27T14:03:33.206Z,7.03
2018-05-27T14:06:00.749Z,7.60
2018-05-27T14:08:28.363Z,8.03
2018-05-27T14:10:55.911Z,7.30
2018-05-27T14:13:24.255Z,7.60
2018-05-27T14:15:52.495Z,8.60
2018-05-27T14:18:20.069Z,7.97
2018-05-27T14:20:47.609Z,8.33
2018-05-27T14:23:15.175Z,6.80
2018-05-27T14:25:43.653Z,7.83
2018-05-27T14:28:11.215Z,9.20
2018-05-27T14:30:38.765Z,10.77
2018-05-27T14:33:06.337Z,10.50
2018-05-27T14:35:33.874Z,8.13
2018-05-27T14:38:03.255Z,9.53
2018-05-27T14:40:30.801Z,7.47
2018-05-27T14:42:58.379Z,7.07
2018-05-27T14:45:25.919Z,7.10
2018-05-27T14:47:53.482Z,6.97
2018-05-27T14:50:21.038Z,7.47
2018-05-27T14:52:48.636Z,7.07
2018-05-27T14:55:16.933Z,6.27
2018-05-27T14:57:44.493Z,6.97
2018-05-27T15:00:12.033Z,7.20
2018-05-27T15:02:40.377Z,6.67
2018-05-27T15:05:07.920Z,7.90
2018-05-27T15:07:35.506Z,7.57
2018-05-27T15:10:03.084Z,8.17
2018-05-27T15:12:30.627Z,7.87
2018-05-27T15:14:58.205Z,8.07
2018-05-27T15:17:26.513Z,8.50
2018-05-27T15:19:54.087Z,7.90
2018-05-27T15:22:21.626Z,8.40
2018-05-27T15:24:49.961Z,8.50
2018-05-27T15:27:17.502Z,9.20
2018-05-27T15:29:45.067Z,8.80
2018-05-27T15:32:12.660Z,7.97
2018-05-27T15:34:40.219Z,7.80
2018-05-27T15:37:09.278Z,9.20
2018-05-27T15:39:36.861Z,7.97
2018-05-27T15:42:04.402Z,8.27
2018-05-27T15:44:31.966Z,7.77
2018-05-27T15:46:59.507Z,7.43
2018-05-27T15:49:27.079Z,8.30
2018-05-27T15:51:54.627Z,8.07
2018-05-27T15:54:22.209Z,8.17
2018-05-27T15:56:49.747Z,7.03
2018-05-27T15:59:17.354Z,7.60
2018-05-27T16:01:44.915Z,7.83
2018-05-27T16:04:12.490Z,8.13
2018-05-27T16:06:40.798Z,7.97
2018-05-27T16:09:08.374Z,7.17
2018-05-27T16:11:35.917Z,8.60
2018-05-27T16:14:03.494Z,9.17
2018-05-27T16:16:31.043Z,8.27
2018-05-27T16:18:58.601Z,8.20
2018-05-27T16:21:26.165Z,8.50
2018-05-27T16:23:54.452Z,9.20
2018-05-27T16:26:22.018Z,8.63
2018-05-27T16:28:49.610Z,9.60
2018-05-27T16:31:17.153Z,9.33
2018-05-27T16:33:44.726Z,7.50
2018-05-27T16:36:12.274Z,9.20
2018-05-27T16:38:39.846Z,9.03
2018-05-27T16:41:07.407Z,9.30
2018-05-27T16:43:34.992Z,8.67
2018-05-27T16:46:03.311Z,9.23
2018-05-27T16:48:30.854Z,9.10
2018-05-27T16:50:58.426Z,7.63
2018-05-27T16:53:25.985Z,6.40
2018-05-27T16:55:53.552Z,7.20
2018-05-27T16:58:21.098Z,7.03
2018-05-27T17:00:48.661Z,6.83
2018-05-27T17:03:16.213Z,7.53
2018-05-27T17:05:43.797Z,7.43
2018-05-27T17:08:11.341Z,7.40
2018-05-27T17:10:38.901Z,6.67
2018-05-27T17:13:06.441Z,7.07
2018-05-27T17:15:34.858Z,6.10
2018-05-27T17:18:02.402Z,6.33
2018-05-27T17:20:29.967Z,5.87
2018-05-27T17:22:57.627Z,5.57
2018-05-27T17:25:25.194Z,5.30
2018-05-27T17:27:52.772Z,6.17
2018-05-27T17:30:20.340Z,5.40
2018-05-27T17:32:47.897Z,5.40
2018-05-27T17:35:15.475Z,5.87
2018-05-27T17:37:43.013Z,5.67
2018-05-27T17:40:10.593Z,6.13
2018-05-27T17:42:38.157Z,6.73
2018-05-27T17:45:05.724Z,7.13
2018-05-27T17:47:33.275Z,6.90
2018-05-27T17:50:00.841Z,7.27
2018-05-27T17:52:28.374Z,7.30
2018-05-27T17:54:55.946Z,7.27
2018-05-27T17:57:23.494Z,6.40
2018-05-27T17:59:51.073Z,7.17
2018-05-27T18:02:18.614Z,6.30
2018-05-27T18:04:46.197Z,7.70
2018-05-27T18:07:13.736Z,8.07
2018-05-27T18:09:41.305Z,8.10
2018-05-27T18:12:08.852Z,7.83
2018-05-27T18:14:36.414Z,8.80
2018-05-27T18:17:03.988Z,8.80
2018-05-27T18:19:31.527Z,9.53
2018-05-27T18:21:59.090Z,9.10
2018-05-27T18:24:26.643Z,10.60
2018-05-27T18:26:54.213Z,9.70
2018-05-27T18:29:21.768Z,8.30
2018-05-27T18:31:49.340Z,7.90
2018-05-27T18:34:16.909Z,8.30
2018-05-27T18:36:44.477Z,7.37
2018-05-27T18:39:12.023Z,8.30
2018-05-27T18:41:39.587Z,9.93
2018-05-27T18:44:07.131Z,9.13
2018-05-27T18:46:34.700Z,9.30
2018-05-27T18:49:02.250Z,8.97
2018-05-27T18:51:29.820Z,8.87
2018-05-27T18:53:57.371Z,9.80
2018-05-27T18:56:24.936Z,9.37
2018-05-27T18:58:52.488Z,10.23
